Time;durP1;ratioP1;P1;durP2;ratioP2;P2;SDS_P1;SDS_P2;PMS_P1;PMS_P2;Temp;Humidity;BMP_temperature;BMP_pressure;BME280_temperature;BME280_humidity;BME280_pressure;Samples;Min_cycle;Max_cycle;Signal;HPM_P1;HPM_P2
2021/01/29 00:01:23;;;;;;;79.13;31.37;;;5.70;99.90;;;-146.47;100.00;66290.13;5045364;28;20239;-78
2021/01/29 00:04:08;;;;;;;78.00;28.93;;;5.70;99.90;;;-146.47;100.00;66290.13;5042344;28;20255;-81
2021/01/29 00:06:53;;;;;;;82.67;28.97;;;5.70;99.90;;;-146.47;100.00;66290.13;5039907;28;20207;-79
2021/01/29 00:09:39;;;;;;;75.33;27.30;;;5.70;99.90;;;-146.47;100.00;66290.13;5040242;28;20220;-79
2021/01/29 00:12:25;;;;;;;82.27;32.00;;;5.70;99.90;;;-146.47;100.00;66290.13;5041954;28;20203;-79
2021/01/29 00:15:16;;;;;;;76.13;30.07;;;5.70;99.90;;;-146.47;100.00;66290.13;5037198;28;20226;-80
2021/01/29 00:18:01;;;;;;;91.93;31.87;;;5.70;99.90;;;-146.47;100.00;66290.13;5045055;28;20247;-80
2021/01/29 00:20:47;;;;;;;75.13;30.17;;;5.70;99.90;;;-146.47;100.00;66290.13;5045621;28;20254;-79
2021/01/29 00:23:32;;;;;;;72.47;31.03;;;5.80;99.90;;;-146.47;100.00;66290.13;5037535;28;20216;-79
2021/01/29 00:26:18;;;;;;;81.10;29.97;;;5.70;99.90;;;-146.47;100.00;66290.13;5039614;28;20218;-77
2021/01/29 00:29:03;;;;;;;82.10;29.23;;;5.80;99.90;;;-146.47;100.00;66290.13;5036072;28;20621;-80
2021/01/29 00:31:49;;;;;;;85.70;30.73;;;5.80;99.90;;;-146.47;100.00;66290.13;5038519;28;20272;-79
2021/01/29 00:34:34;;;;;;;73.47;29.07;;;5.80;99.90;;;-146.47;100.00;66290.13;5045300;28;20288;-79
2021/01/29 00:37:19;;;;;;;90.87;30.23;;;5.70;99.90;;;-146.47;100.00;66290.13;5043111;28;20234;-80
2021/01/29 00:40:07;;;;;;;89.20;31.33;;;5.80;99.90;;;-146.47;100.00;66290.13;5043779;28;20959;-79
2021/01/29 00:42:54;;;;;;;81.60;29.20;;;5.80;99.90;;;-146.47;100.00;66290.13;5033428;28;20343;-79
2021/01/29 00:45:41;;;;;;;96.40;32.67;;;5.80;99.90;;;-146.47;100.00;66290.13;5041860;28;20763;-79
2021/01/29 00:48:26;;;;;;;108.77;33.37;;;5.70;99.90;;;-146.47;100.00;66290.13;5043403;28;20306;-78
2021/01/29 00:51:12;;;;;;;109.67;33.70;;;5.80;99.90;;;-146.47;100.00;66290.13;5045335;28;20223;-79
2021/01/29 00:53:57;;;;;;;110.97;30.93;;;5.80;99.90;;;-146.47;100.00;66290.13;5043122;28;20323;-81
2021/01/29 00:56:42;;;;;;;125.80;36.93;;;5.80;99.90;;;-146.47;100.00;66290.13;5038412;28;20734;-78
2021/01/29 00:59:29;;;;;;;125.77;36.47;;;5.80;99.90;;;-146.47;100.00;66290.13;5042255;28;20238;-78
2021/01/29 01:02:14;;;;;;;143.63;35.73;;;5.80;99.90;;;-146.47;100.00;66290.13;5039940;28;20236;-79
2021/01/29 01:04:59;;;;;;;149.00;37.33;;;5.80;99.90;;;-146.47;100.00;66290.13;5038363;28;20255;-81
2021/01/29 01:07:45;;;;;;;131.93;36.30;;;5.80;99.90;;;-146.47;100.00;66290.13;5042614;28;20242;-78
2021/01/29 01:10:30;;;;;;;145.27;37.77;;;5.80;99.90;;;-146.47;100.00;66290.13;5038172;28;20631;-80
2021/01/29 01:13:15;;;;;;;154.93;39.63;;;5.80;99.90;;;-146.47;100.00;66290.13;5040553;28;20207;-79
2021/01/29 01:16:01;;;;;;;197.30;44.50;;;5.80;99.90;;;-146.47;100.00;66290.13;5038751;28;20271;-80
2021/01/29 01:18:46;;;;;;;199.13;44.50;;;5.80;99.90;;;-146.47;100.00;66290.13;5042943;28;20588;-78
2021/01/29 01:21:31;;;;;;;202.53;41.43;;;5.80;99.90;;;-146.47;100.00;66290.13;5044382;28;20215;-80
2021/01/29 01:24:17;;;;;;;189.63;42.40;;;5.80;99.90;;;-146.47;100.00;66290.13;5041205;28;20218;-79
2021/01/29 01:27:02;;;;;;;198.73;47.43;;;5.80;99.90;;;-146.47;100.00;66290.13;5044770;28;20206;-79
2021/01/29 01:29:47;;;;;;;205.43;46.03;;;5.90;99.90;;;-146.47;100.00;66290.13;5042621;28;20620;-78
2021/01/29 01:32:34;;;;;;;226.47;46.73;;;5.90;99.90;;;-146.47;100.00;66290.13;5040097;28;20266;-79
2021/01/29 01:35:21;;;;;;;237.50;46.77;;;5.90;99.90;;;-146.47;100.00;66290.13;5036295;28;20271;-79
2021/01/29 01:38:06;;;;;;;239.27;48.03;;;5.90;99.90;;;-146.47;100.00;66290.13;5030998;28;20616;-80
2021/01/29 01:40:52;;;;;;;229.17;45.40;;;6.00;99.90;;;-146.47;100.00;66290.13;5042291;28;20215;-80
2021/01/29 01:43:39;;;;;;;189.83;43.53;;;5.90;99.90;;;-146.47;100.00;66290.13;5043664;28;20214;-80
2021/01/29 01:46:24;;;;;;;213.80;45.07;;;5.90;99.90;;;-146.47;100.00;66290.13;5037213;28;20253;-78
2021/01/29 01:49:14;;;;;;;220.50;46.23;;;6.00;99.90;;;-146.47;100.00;66290.13;5042392;28;20234;-79
2021/01/29 01:52:06;;;;;;;183.67;41.77;;;6.00;99.90;;;-146.47;100.00;66290.13;5030424;28;20207;-77
2021/01/29 01:54:58;;;;;;;195.20;42.27;;;6.00;99.90;;;-146.47;100.00;66290.13;5038527;28;20212;-78
2021/01/29 01:57:49;;;;;;;161.23;40.80;;;6.00;99.90;;;-146.47;100.00;66290.13;5035893;28;20243;-78
2021/01/29 02:00:35;;;;;;;162.73;39.63;;;6.10;99.90;;;-146.47;100.00;66290.13;5032748;28;20222;-79
2021/01/29 02:03:30;;;;;;;180.97;42.70;;;6.10;99.90;;;-146.47;100.00;66290.13;5027742;28;20227;-81
2021/01/29 02:06:16;;;;;;;158.37;40.20;;;6.10;99.90;;;-146.47;100.00;66290.13;5043115;28;20754;-79
2021/01/29 02:09:07;;;;;;;166.13;40.40;;;6.10;99.90;;;-146.47;100.00;66290.13;5037002;28;20235;-79
2021/01/29 02:11:54;;;;;;;151.97;40.43;;;6.20;99.90;;;-146.47;100.00;66290.13;5036548;28;20571;-79
2021/01/29 02:14:39;;;;;;;168.97;38.50;;;6.20;99.90;;;-146.47;100.00;66290.13;5031336;28;20203;-80
2021/01/29 02:17:47;;;;;;;189.57;43.03;;;6.20;99.90;;;-146.47;100.00;66290.13;5041439;28;20254;-80
2021/01/29 02:21:13;;;;;;;167.83;45.03;;;6.20;99.90;;;-146.47;100.00;66290.13;5035162;28;20203;-80
2021/01/29 02:24:57;;;;;;;122.80;39.00;;;6.30;99.90;;;-146.47;100.00;66290.13;5041555;28;20218;-79
2021/01/29 02:27:49;;;;;;;140.17;37.30;;;6.30;99.90;;;-146.47;100.00;66290.13;5041724;28;20278;-80
2021/01/29 02:30:55;;;;;;;115.53;35.37;;;6.30;99.90;;;-146.47;100.00;66290.13;5041026;28;20268;-79
2021/01/29 02:34:32;;;;;;;110.80;37.40;;;6.30;99.90;;;-146.47;100.00;66290.13;5040891;28;20742;-78
2021/01/29 02:38:12;;;;;;;89.33;32.63;;;6.40;99.90;;;-146.47;100.00;66290.13;5030329;28;20527;-79
2021/01/29 02:41:13;;;;;;;89.00;31.63;;;6.40;99.90;;;-146.47;100.00;66290.13;5038294;28;20254;-80
2021/01/29 02:44:25;;;;;;;82.83;29.93;;;6.40;99.90;;;-146.47;100.00;66290.13;5036110;28;20288;-80
2021/01/29 02:47:21;;;;;;;81.17;32.43;;;6.40;99.90;;;-146.47;100.00;66290.13;5036679;28;20215;-78
2021/01/29 02:50:39;;;;;;;86.73;32.20;;;6.50;99.90;;;-146.47;100.00;66290.13;5028728;28;20210;-79
2021/01/29 02:53:39;;;;;;;90.33;32.87;;;6.50;99.90;;;-146.47;100.00;66290.13;5034298;28;20199;-81
2021/01/29 02:56:34;;;;;;;85.07;31.37;;;6.50;99.90;;;-146.47;100.00;66290.13;5045591;28;20320;-80
2021/01/29 02:59:31;;;;;;;79.93;30.47;;;6.50;99.90;;;-146.47;100.00;66290.13;5046076;28;20258;-80
2021/01/29 03:02:24;;;;;;;85.67;32.40;;;6.60;99.90;;;-146.47;100.00;66290.13;5038727;28;20256;-80
2021/01/29 03:05:15;;;;;;;84.87;31.60;;;6.60;99.90;;;-146.47;100.00;66290.13;5042268;28;20322;-82
2021/01/29 03:08:09;;;;;;;81.33;30.30;;;6.60;99.90;;;-146.47;100.00;66290.13;5039476;28;20222;-80
2021/01/29 03:11:05;;;;;;;73.63;28.60;;;6.70;99.90;;;-146.47;100.00;66290.13;5037135;28;20211;-80
2021/01/29 03:14:05;;;;;;;76.60;29.50;;;6.70;99.90;;;-146.47;100.00;66290.13;5043641;28;20203;-80
2021/01/29 03:16:56;;;;;;;71.37;29.43;;;6.80;99.90;;;-146.47;100.00;66290.13;5040283;28;20199;-81
2021/01/29 03:19:53;;;;;;;82.37;30.50;;;6.80;99.90;;;-146.47;100.00;66290.13;5042685;28;20223;-79
2021/01/29 03:22:48;;;;;;;89.03;30.97;;;6.80;99.90;;;-146.47;100.00;66290.13;5050427;28;20203;-79
2021/01/29 03:25:39;;;;;;;73.67;29.17;;;6.80;99.90;;;-146.47;100.00;66290.13;5041659;28;20231;-80
2021/01/29 03:28:31;;;;;;;80.60;29.10;;;6.90;99.90;;;-146.47;100.00;66290.13;5037746;28;20220;-80
2021/01/29 03:31:22;;;;;;;68.13;27.93;;;6.90;99.90;;;-146.47;100.00;66290.13;5034153;28;20219;-78
2021/01/29 03:34:14;;;;;;;57.80;25.07;;;6.90;99.90;;;-146.47;100.00;66290.13;5040312;28;20238;-78
2021/01/29 03:37:06;;;;;;;55.67;24.93;;;7.00;99.90;;;-146.47;100.00;66290.13;5035944;28;20200;-80
2021/01/29 03:39:52;;;;;;;51.97;24.17;;;7.00;99.90;;;-146.47;100.00;66290.13;5032605;28;20288;-80
2021/01/29 03:42:51;;;;;;;53.20;23.13;;;7.10;99.90;;;-146.47;100.00;66290.13;5039116;28;20206;-79
2021/01/29 03:45:47;;;;;;;44.33;21.97;;;7.00;99.90;;;-146.47;100.00;66290.13;5028693;28;20301;-78
2021/01/29 03:48:48;;;;;;;43.37;20.23;;;7.10;99.90;;;-146.47;100.00;66290.13;5042076;28;20246;-79
2021/01/29 03:51:55;;;;;;;21.40;10.70;;;7.10;99.90;;;-146.47;100.00;66290.13;5041792;28;20266;-80
2021/01/29 03:54:56;;;;;;;19.60;11.17;;;7.10;99.90;;;-146.47;100.00;66290.13;5034955;28;20283;-80
2021/01/29 03:57:56;;;;;;;23.37;12.80;;;7.10;99.90;;;-146.47;100.00;66290.13;5039910;28;20266;-80
2021/01/29 04:00:54;;;;;;;27.10;12.53;;;7.30;99.90;;;-146.47;100.00;66290.13;5032078;28;20208;-82
2021/01/29 04:03:48;;;;;;;29.27;14.13;;;7.30;99.90;;;-146.47;100.00;66290.13;5039232;28;20600;-81
2021/01/29 04:06:43;;;;;;;29.87;14.23;;;7.40;99.90;;;-146.47;100.00;66290.13;5044316;28;20208;-79
2021/01/29 04:09:40;;;;;;;34.63;16.67;;;7.50;99.90;;;-146.47;100.00;66290.13;5042497;28;20223;-81
2021/01/29 04:12:35;;;;;;;33.73;16.83;;;7.70;99.90;;;-146.47;100.00;66290.13;5040073;28;20211;-79
2021/01/29 04:15:30;;;;;;;34.50;16.87;;;7.80;99.90;;;-146.47;100.00;66290.13;5041752;28;20227;-79
2021/01/29 04:18:24;;;;;;;36.60;17.23;;;7.90;99.90;;;-146.47;100.00;66290.13;5034460;28;20227;-79
2021/01/29 04:21:20;;;;;;;46.93;20.27;;;7.90;99.90;;;-146.47;100.00;66290.13;5043069;28;20264;-79
2021/01/29 04:24:12;;;;;;;40.93;18.00;;;8.00;99.90;;;-146.47;100.00;66290.13;5040452;28;20222;-80
2021/01/29 04:27:06;;;;;;;40.20;18.40;;;8.10;99.90;;;-146.47;100.00;66290.13;5041514;28;20578;-81
2021/01/29 04:29:57;;;;;;;44.27;19.27;;;8.20;99.90;;;-146.47;100.00;66290.13;5039294;28;20235;-81
2021/01/29 04:32:49;;;;;;;45.73;19.63;;;8.30;99.90;;;-146.47;100.00;66290.13;5036146;28;20686;-80
2021/01/29 04:35:38;;;;;;;46.57;21.07;;;8.30;99.90;;;-146.47;100.00;66290.13;5042177;28;20220;-79
2021/01/29 04:38:36;;;;;;;44.07;19.57;;;8.40;99.90;;;-146.47;100.00;66290.13;5043297;28;20910;-80
2021/01/29 04:41:51;;;;;;;49.53;20.83;;;8.40;99.90;;;-146.47;100.00;66290.13;5037645;28;20239;-79
2021/01/29 04:45:04;;;;;;;42.67;19.93;;;8.50;99.90;;;-146.47;100.00;66290.13;5028724;28;20215;-81
2021/01/29 04:48:00;;;;;;;40.13;19.70;;;8.50;99.90;;;-146.47;100.00;66290.13;5028842;28;20255;-80
2021/01/29 04:51:27;;;;;;;35.90;17.13;;;8.60;99.90;;;-146.47;100.00;66290.13;5040435;28;20247;-81
2021/01/29 04:54:56;;;;;;;36.77;18.27;;;8.60;99.90;;;-146.47;100.00;66290.13;5031554;28;20246;-80
2021/01/29 04:57:53;;;;;;;36.90;18.90;;;8.60;99.90;;;-146.47;100.00;66290.13;5033467;28;20351;-80
2021/01/29 05:01:35;;;;;;;35.47;18.03;;;8.60;99.90;;;-146.47;100.00;66290.13;5033698;28;20203;-81
2021/01/29 05:05:18;;;;;;;29.03;14.37;;;8.70;99.90;;;-146.47;100.00;66290.13;5036095;28;20246;-79
2021/01/29 05:08:21;;;;;;;27.60;15.07;;;8.70;99.90;;;-146.47;100.00;66290.13;4968283;28;20256;-81
2021/01/29 05:11:30;;;;;;;26.20;14.83;;;8.70;99.90;;;-146.47;100.00;66290.13;5033662;28;20230;-80
2021/01/29 05:14:47;;;;;;;29.00;14.97;;;8.70;99.90;;;-146.47;100.00;66290.13;5029800;28;20234;-81
2021/01/29 05:18:17;;;;;;;26.90;16.70;;;8.80;99.90;;;-146.47;100.00;66290.13;5031525;28;20224;-79
2021/01/29 05:21:32;;;;;;;27.00;14.63;;;8.80;99.90;;;-146.47;100.00;66290.13;5033893;28;20202;-80
2021/01/29 05:25:10;;;;;;;24.60;14.53;;;8.80;99.90;;;-146.47;100.00;66290.13;5028020;28;20220;-80
2021/01/29 05:28:29;;;;;;;23.17;13.87;;;8.80;99.90;;;-146.47;100.00;66290.13;5034926;28;20279;-82
2021/01/29 05:31:50;;;;;;;26.87;15.80;;;8.80;99.90;;;-146.47;100.00;66290.13;5035699;28;20227;-80
2021/01/29 05:34:53;;;;;;;24.00;13.73;;;8.80;99.90;;;-146.47;100.00;66290.13;5025997;28;20200;-78
2021/01/29 05:38:16;;;;;;;23.23;14.97;;;8.90;99.90;;;-146.47;100.00;66290.13;5032034;28;20198;-80
2021/01/29 05:41:40;;;;;;;21.33;13.40;;;8.90;99.90;;;-146.47;100.00;66290.13;5025808;28;20215;-80
2021/01/29 05:45:08;;;;;;;20.93;11.40;;;8.90;99.90;;;-146.47;100.00;66290.13;5031294;28;20222;-80
2021/01/29 05:48:20;;;;;;;19.97;11.43;;;8.90;99.90;;;-146.47;100.00;66290.13;5034102;28;20310;-80
2021/01/29 05:51:53;;;;;;;15.53;9.13;;;9.00;99.90;;;-146.47;100.00;66290.13;5040309;28;20260;-81
2021/01/29 05:55:17;;;;;;;19.27;9.93;;;9.00;99.90;;;-146.47;100.00;66290.13;5034058;28;20257;-81
2021/01/29 05:58:43;;;;;;;16.57;10.10;;;9.00;99.90;;;-146.47;100.00;66290.13;5019791;28;549866;-80
2021/01/29 06:02:03;;;;;;;15.50;10.50;;;9.00;99.90;;;-146.47;100.00;66290.13;5039237;28;20294;-80
2021/01/29 06:05:22;;;;;;;15.70;10.27;;;9.10;99.90;;;-146.47;100.00;66290.13;5032850;28;20227;-81
2021/01/29 06:08:40;;;;;;;16.37;10.53;;;9.10;99.90;;;-146.47;100.00;66290.13;5038738;28;20294;-81
2021/01/29 06:12:12;;;;;;;16.07;10.10;;;9.20;99.90;;;-146.47;100.00;66290.13;5040275;28;20272;-80
2021/01/29 06:15:49;;;;;;;16.83;9.50;;;9.20;99.90;;;-146.47;100.00;66290.13;4972990;28;20233;-81
2021/01/29 06:19:03;;;;;;;16.40;10.10;;;9.20;99.90;;;-146.47;100.00;66290.13;4953715;28;20306;-83
2021/01/29 06:22:19;;;;;;;15.20;9.47;;;9.20;99.90;;;-146.47;100.00;66290.13;4958733;28;20291;-80
2021/01/29 06:25:40;;;;;;;15.43;9.07;;;9.20;99.90;;;-146.47;100.00;66290.13;5036798;28;20247;-80
2021/01/29 06:29:25;;;;;;;15.50;9.87;;;9.20;99.90;;;-146.47;100.00;66290.13;5029045;28;20655;-80
2021/01/29 06:32:56;;;;;;;12.93;9.60;;;9.30;99.90;;;-146.47;100.00;66290.13;5033848;28;20982;-80
2021/01/29 06:36:05;;;;;;;15.70;9.27;;;9.30;99.90;;;-146.47;100.00;66290.13;5035376;28;20930;-81
2021/01/29 06:39:11;;;;;;;13.50;8.27;;;9.30;99.90;;;-146.47;100.00;66290.13;5036224;28;20590;-81
2021/01/29 06:43:00;;;;;;;12.27;7.70;;;9.30;99.90;;;-146.47;100.00;66290.13;5030158;28;20286;-79
2021/01/29 06:46:38;;;;;;;14.43;7.87;;;9.30;99.90;;;-146.47;100.00;66290.13;5028485;28;20362;-80
2021/01/29 06:49:49;;;;;;;17.50;7.73;;;9.30;99.90;;;-146.47;100.00;66290.13;5034094;28;20218;-80
2021/01/29 06:53:31;;;;;;;13.47;7.27;;;9.30;99.90;;;-146.47;100.00;66290.13;5025614;28;20199;-80
2021/01/29 06:56:55;;;;;;;10.57;7.10;;;9.30;99.90;;;-146.47;100.00;66290.13;5036130;28;20219;-81
2021/01/29 07:00:21;;;;;;;12.67;7.30;;;9.20;99.90;;;-146.47;100.00;66290.13;5036702;28;20266;-80
2021/01/29 07:03:56;;;;;;;10.53;7.43;;;9.30;99.90;;;-146.47;100.00;66290.13;5033799;28;20206;-80
2021/01/29 07:07:00;;;;;;;13.47;8.13;;;9.30;99.90;;;-146.47;100.00;66290.13;5035641;28;20239;-80
2021/01/29 07:10:19;;;;;;;13.40;8.23;;;9.20;99.90;;;-146.47;100.00;66290.13;5034012;28;20227;-80
2021/01/29 07:13:15;;;;;;;12.87;8.53;;;9.20;99.90;;;-146.47;100.00;66290.13;5025964;28;20921;-79
2021/01/29 07:16:20;;;;;;;14.37;9.13;;;9.20;99.90;;;-146.47;100.00;66290.13;5030521;28;20207;-80
2021/01/29 07:19:24;;;;;;;16.70;8.83;;;9.20;99.90;;;-146.47;100.00;66290.13;5029018;28;20347;-78
2021/01/29 07:22:59;;;;;;;15.83;8.20;;;9.20;99.90;;;-146.47;100.00;66290.13;5025543;28;20319;-79
2021/01/29 07:26:08;;;;;;;15.70;8.40;;;9.20;99.90;;;-146.47;100.00;66290.13;5027949;28;20223;-80
2021/01/29 07:29:14;;;;;;;19.63;9.30;;;9.20;99.90;;;-146.47;100.00;66290.13;5028283;28;20266;-79
2021/01/29 07:32:13;;;;;;;19.77;8.83;;;9.20;99.90;;;-146.47;100.00;66290.13;5026817;28;21125;-80
2021/01/29 07:35:11;;;;;;;13.33;8.73;;;9.20;99.90;;;-146.47;100.00;66290.13;5028673;28;20211;-80
2021/01/29 07:38:51;;;;;;;14.57;8.63;;;9.20;99.90;;;-146.47;100.00;66290.13;5026606;28;20274;-80
2021/01/29 07:42:00;;;;;;;19.97;7.70;;;9.20;99.90;;;-146.47;100.00;66290.13;5028043;28;20683;-80
2021/01/29 07:45:02;;;;;;;19.20;7.37;;;9.20;99.90;;;-146.47;100.00;66290.13;5028492;28;20760;-79
2021/01/29 07:48:34;;;;;;;14.37;6.90;;;9.20;99.90;;;-146.47;100.00;66290.13;5030363;28;20235;-81
2021/01/29 07:51:36;;;;;;;10.70;6.13;;;9.20;99.90;;;-146.47;100.00;66290.13;5010547;28;20715;-79
2021/01/29 07:54:53;;;;;;;17.57;8.27;;;9.20;99.90;;;-146.47;100.00;66290.13;5033605;28;20207;-79
2021/01/29 07:58:20;;;;;;;16.13;8.77;;;9.20;99.90;;;-146.47;100.00;66290.13;5033858;28;20199;-79
2021/01/29 08:01:35;;;;;;;21.90;8.40;;;9.20;99.90;;;-146.47;100.00;66290.13;5026740;28;20204;-81
2021/01/29 08:04:44;;;;;;;14.73;6.67;;;9.20;99.90;;;-146.47;100.00;66290.13;5030582;28;20200;-80
2021/01/29 08:07:36;;;;;;;23.30;7.87;;;9.20;99.90;;;-146.47;100.00;66290.13;5021320;28;20585;-81
2021/01/29 08:10:30;;;;;;;20.93;7.30;;;9.30;99.90;;;-146.47;100.00;66290.13;5023365;28;20622;-81
2021/01/29 08:13:27;;;;;;;23.30;7.60;;;9.30;99.90;;;-146.47;100.00;66290.13;5030482;28;20679;-81
2021/01/29 08:16:44;;;;;;;26.33;6.93;;;9.30;99.90;;;-146.47;100.00;66290.13;5032996;28;20208;-81
2021/01/29 08:19:42;;;;;;;25.27;6.67;;;9.40;99.90;;;-146.47;100.00;66290.13;5034847;28;20250;-80
2021/01/29 08:22:59;;;;;;;17.97;6.07;;;9.40;99.90;;;-146.47;100.00;66290.13;5022842;28;20223;-80
2021/01/29 08:26:30;;;;;;;24.10;7.40;;;9.40;99.90;;;-146.47;100.00;66290.13;5033868;28;20231;-81
2021/01/29 08:29:58;;;;;;;23.77;7.27;;;9.40;99.90;;;-146.47;100.00;66290.13;5023682;28;20247;-81
2021/01/29 08:33:31;;;;;;;24.73;5.67;;;9.40;99.90;;;-146.47;100.00;66290.13;5032357;28;20242;-81
2021/01/29 08:36:34;;;;;;;24.67;7.60;;;9.40;99.90;;;-146.47;100.00;66290.13;5033417;28;20218;-81
2021/01/29 08:39:29;;;;;;;26.83;6.70;;;9.40;99.90;;;-146.47;100.00;66290.13;5022360;28;20266;-80
2021/01/29 08:42:30;;;;;;;29.73;6.90;;;9.40;99.90;;;-146.47;100.00;66290.13;5032360;28;20215;-81
2021/01/29 08:45:42;;;;;;;24.67;7.43;;;9.40;99.90;;;-146.47;100.00;66290.13;5033156;28;20270;-79
2021/01/29 08:48:52;;;;;;;35.87;7.80;;;9.40;99.90;;;-146.47;100.00;66290.13;5026263;28;20223;-81
2021/01/29 08:51:46;;;;;;;39.47;8.37;;;9.30;99.90;;;-146.47;100.00;66290.13;5030534;28;20199;-81
2021/01/29 08:55:11;;;;;;;38.97;8.97;;;9.30;99.90;;;-146.47;100.00;66290.13;5034403;28;20198;-80
2021/01/29 08:58:11;;;;;;;37.67;9.40;;;9.30;99.90;;;-146.47;100.00;66290.13;5033625;28;20236;-80
2021/01/29 09:01:12;;;;;;;38.77;8.00;;;9.30;99.90;;;-146.47;100.00;66290.13;5034057;28;20195;-81
2021/01/29 09:04:06;;;;;;;30.60;7.33;;;9.30;99.90;;;-146.47;100.00;66290.13;5029526;28;20207;-81
2021/01/29 09:06:57;;;;;;;35.63;8.40;;;9.30;99.90;;;-146.47;100.00;66290.13;5025844;28;20207;-81
2021/01/29 09:09:43;;;;;;;41.37;7.77;;;9.30;99.90;;;-146.47;100.00;66290.13;5033582;28;20223;-81
2021/01/29 09:12:31;;;;;;;45.80;8.50;;;9.30;99.90;;;-146.47;100.00;66290.13;5026993;28;20244;-81
2021/01/29 09:15:25;;;;;;;36.53;7.73;;;9.30;99.90;;;-146.47;100.00;66290.13;5031522;28;20246;-81
2021/01/29 09:18:20;;;;;;;41.03;7.07;;;9.30;99.90;;;-146.47;100.00;66290.13;5033865;28;20583;-80
2021/01/29 09:21:23;;;;;;;39.50;8.20;;;9.30;99.90;;;-146.47;100.00;66290.13;5035520;28;20271;-81
2021/01/29 09:24:22;;;;;;;44.83;7.93;;;9.20;99.90;;;-146.47;100.00;66290.13;5030540;28;20265;-81
2021/01/29 09:27:47;;;;;;;36.90;7.00;;;9.20;99.90;;;-146.47;100.00;66290.13;5033897;28;20287;-81
2021/01/29 09:30:39;;;;;;;39.40;8.20;;;9.30;99.90;;;-146.47;100.00;66290.13;5035636;28;20223;-81
2021/01/29 09:33:34;;;;;;;38.33;7.37;;;9.20;99.90;;;-146.47;100.00;66290.13;5034507;28;20212;-81
2021/01/29 09:36:24;;;;;;;40.87;7.50;;;9.20;99.90;;;-146.47;100.00;66290.13;5034334;28;20278;-81
2021/01/29 09:39:17;;;;;;;39.83;8.13;;;9.20;99.90;;;-146.47;100.00;66290.13;5035524;28;20584;-80
2021/01/29 09:42:08;;;;;;;37.30;9.47;;;9.10;99.90;;;-146.47;100.00;66290.13;5031166;28;20191;-79
2021/01/29 09:45:01;;;;;;;42.50;9.30;;;9.10;99.90;;;-146.47;100.00;66290.13;5031221;28;20211;-79
2021/01/29 09:47:56;;;;;;;43.80;7.60;;;9.10;99.90;;;-146.47;100.00;66290.13;5019996;28;20247;-77
2021/01/29 09:50:42;;;;;;;39.23;7.17;;;9.10;99.90;;;-146.47;100.00;66290.13;5029644;28;20695;-79
2021/01/29 09:53:33;;;;;;;33.07;7.07;;;9.10;99.90;;;-146.47;100.00;66290.13;5025213;28;20727;-79
2021/01/29 09:56:26;;;;;;;44.37;8.57;;;9.10;99.90;;;-146.47;100.00;66290.13;5018938;28;20192;-78
2021/01/29 09:59:48;;;;;;;43.47;9.03;;;9.10;99.90;;;-146.47;100.00;66290.13;5028782;28;20263;-80
2021/01/29 10:02:47;;;;;;;37.73;8.90;;;9.20;99.90;;;-146.47;100.00;66290.13;5027263;28;20211;-79
2021/01/29 10:05:38;;;;;;;34.17;6.03;;;9.20;99.90;;;-146.47;100.00;66290.13;5024212;28;20722;-78
2021/01/29 10:08:36;;;;;;;29.07;6.10;;;9.20;99.90;;;-146.47;100.00;66290.13;5026673;28;20216;-80
2021/01/29 10:11:29;;;;;;;33.70;7.53;;;9.20;99.90;;;-146.47;100.00;66290.13;5027291;28;20207;-82
2021/01/29 10:14:21;;;;;;;36.77;9.03;;;9.20;99.90;;;-146.47;100.00;66290.13;5024554;28;20266;-78
2021/01/29 10:17:21;;;;;;;32.00;7.17;;;9.20;99.90;;;-146.47;100.00;66290.13;5051104;28;20202;-79
2021/01/29 10:20:11;;;;;;;37.67;8.50;;;9.20;99.90;;;-146.47;100.00;66290.13;5030794;28;20242;-79
2021/01/29 10:23:18;;;;;;;34.13;7.77;;;9.30;99.90;;;-146.47;100.00;66290.13;5030735;28;20688;-78
2021/01/29 10:26:20;;;;;;;46.53;8.67;;;9.30;99.90;;;-146.47;100.00;66290.13;5020431;28;20215;-79
2021/01/29 10:29:17;;;;;;;32.27;9.00;;;9.30;99.90;;;-146.47;100.00;66290.13;5028790;28;20277;-78
2021/01/29 10:32:10;;;;;;;36.27;7.00;;;9.40;99.90;;;-146.47;100.00;66290.13;5030448;28;20200;-79
2021/01/29 10:35:03;;;;;;;30.33;7.93;;;9.40;99.90;;;-146.47;100.00;66290.13;5023687;28;20204;-79
2021/01/29 10:37:59;;;;;;;30.53;7.70;;;9.40;99.90;;;-146.47;100.00;66290.13;5028164;28;20300;-78
2021/01/29 10:41:01;;;;;;;35.37;7.33;;;9.50;99.90;;;-146.47;100.00;66290.13;5030711;28;20239;-79
2021/01/29 10:43:53;;;;;;;32.83;6.63;;;9.60;99.90;;;-146.47;100.00;66290.13;5026598;28;20199;-79
2021/01/29 10:47:20;;;;;;;32.33;7.50;;;9.60;99.90;;;-146.47;100.00;66290.13;5029138;28;20646;-79
2021/01/29 10:50:20;;;;;;;33.37;7.03;;;9.80;99.90;;;-146.47;100.00;66290.13;5028566;28;20660;-78
2021/01/29 10:53:14;;;;;;;28.90;7.47;;;9.90;99.90;;;-146.47;100.00;66290.13;5023730;28;20219;-81
2021/01/29 10:56:08;;;;;;;32.47;7.33;;;10.00;99.90;;;-146.47;100.00;66290.13;5024300;28;20204;-79
2021/01/29 10:59:05;;;;;;;33.23;7.50;;;10.10;99.90;;;-146.47;100.00;66290.13;5019027;28;20410;-83
2021/01/29 11:02:02;;;;;;;31.40;7.47;;;10.30;99.90;;;-146.47;100.00;66290.13;5025236;28;20207;-80
2021/01/29 11:04:56;;;;;;;27.87;5.93;;;10.40;99.90;;;-146.47;100.00;66290.13;5019434;28;20255;-80
2021/01/29 11:07:47;;;;;;;31.90;6.87;;;10.50;99.90;;;-146.47;100.00;66290.13;5030282;28;20278;-79
2021/01/29 11:10:33;;;;;;;33.53;7.13;;;10.60;99.90;;;-146.47;100.00;66290.13;5018960;28;20215;-80
2021/01/29 11:13:27;;;;;;;24.40;6.40;;;10.70;99.90;;;-146.47;100.00;66290.13;5031108;28;20266;-79
2021/01/29 11:16:18;;;;;;;26.30;6.63;;;10.80;99.90;;;-146.47;100.00;66290.13;5034417;28;20259;-79
2021/01/29 11:19:08;;;;;;;31.90;7.27;;;10.90;99.90;;;-146.47;100.00;66290.13;5033608;28;20223;-79
2021/01/29 11:22:22;;;;;;;28.50;7.00;;;11.00;99.90;;;-146.47;100.00;66290.13;5033777;28;20211;-79
2021/01/29 11:25:33;;;;;;;23.23;6.30;;;11.00;99.90;;;-146.47;100.00;66290.13;5027134;28;20222;-79
2021/01/29 11:28:36;;;;;;;27.30;7.20;;;11.10;99.90;;;-146.47;100.00;66290.13;5028849;28;20235;-79
2021/01/29 11:31:43;;;;;;;27.33;6.30;;;11.10;99.90;;;-146.47;100.00;66290.13;5025133;28;20562;-79
2021/01/29 11:34:32;;;;;;;30.73;6.40;;;11.10;99.90;;;-146.47;100.00;66290.13;5032675;28;20614;-79
2021/01/29 11:37:31;;;;;;;24.70;5.80;;;11.10;99.90;;;-146.47;100.00;66290.13;5033956;28;20246;-80
2021/01/29 11:40:25;;;;;;;25.73;6.10;;;11.10;99.90;;;-146.47;100.00;66290.13;5035009;28;20288;-80
2021/01/29 11:43:27;;;;;;;29.43;6.33;;;11.10;99.90;;;-146.47;100.00;66290.13;5031279;28;20889;-79
2021/01/29 11:46:25;;;;;;;23.37;5.70;;;11.10;99.90;;;-146.47;100.00;66290.13;5034738;28;20262;-79
2021/01/29 11:49:18;;;;;;;30.33;7.10;;;11.10;99.90;;;-146.47;100.00;66290.13;5032273;28;20227;-79
2021/01/29 11:52:19;;;;;;;29.37;6.73;;;10.90;99.90;;;-146.47;100.00;66290.13;5025428;28;20208;-84
2021/01/29 11:55:14;;;;;;;18.17;5.47;;;10.90;99.90;;;-146.47;100.00;66290.13;5032640;28;20202;-79
2021/01/29 11:58:13;;;;;;;26.73;7.13;;;10.70;99.90;;;-146.47;100.00;66290.13;5023920;28;20235;-79
2021/01/29 12:01:06;;;;;;;24.73;7.17;;;10.70;99.90;;;-146.47;100.00;66290.13;5031409;28;20262;-79
2021/01/29 12:04:00;;;;;;;23.67;6.47;;;10.60;99.90;;;-146.47;100.00;66290.13;5026918;28;20615;-77
2021/01/29 12:07:00;;;;;;;22.27;6.13;;;10.50;99.90;;;-146.47;100.00;66290.13;5033029;28;20270;-77
2021/01/29 12:09:55;;;;;;;30.13;7.77;;;10.50;99.90;;;-146.47;100.00;66290.13;5029265;28;20210;-80
2021/01/29 12:12:52;;;;;;;33.50;7.03;;;10.40;99.90;;;-146.47;100.00;66290.13;5030759;28;20195;-77
2021/01/29 12:15:44;;;;;;;29.13;6.80;;;10.30;99.90;;;-146.47;100.00;66290.13;5030015;28;20283;-78